createdAt,value
2018-06-12T00:01:17.415Z,99.99
2018-06-12T00:02:17.426Z,99.99
2018-06-12T00:04:10.380Z,99.99
2018-06-12T00:05:10.376Z,99.99
2018-06-12T00:07:03.303Z,99.99
2018-06-12T00:08:03.319Z,99.99
2018-06-12T00:09:56.277Z,99.99
2018-06-12T00:10:56.265Z,99.99
2018-06-12T00:12:49.210Z,99.99
2018-06-12T00:13:49.208Z,99.99
2018-06-12T00:15:42.151Z,99.99
2018-06-12T00:16:42.155Z,99.99
2018-06-12T00:18:35.106Z,99.99
2018-06-12T00:19:35.106Z,99.99
2018-06-12T00:21:28.036Z,99.99
2018-06-12T00:22:28.052Z,99.99
2018-06-12T00:24:21.004Z,99.99
2018-06-12T00:25:21.003Z,99.99
2018-06-12T00:27:13.929Z,99.99
2018-06-12T00:28:13.944Z,99.99
2018-06-12T00:30:06.902Z,99.99
2018-06-12T00:31:06.906Z,99.99
2018-06-12T00:32:59.850Z,99.99
2018-06-12T00:33:59.844Z,99.99
2018-06-12T00:35:52.769Z,99.99
2018-06-12T00:36:52.783Z,99.99
2018-06-12T00:38:45.735Z,99.99
2018-06-12T00:39:45.731Z,99.99
2018-06-12T00:41:38.659Z,99.99
2018-06-12T00:42:38.670Z,99.99
2018-06-12T00:44:31.616Z,99.99
2018-06-12T00:45:31.614Z,99.99
2018-06-12T00:47:24.548Z,99.99
2018-06-12T00:48:24.566Z,99.99
2018-06-12T00:50:17.517Z,99.99
2018-06-12T00:51:17.508Z,99.99
2018-06-12T00:53:10.461Z,99.99
2018-06-12T00:54:10.456Z,99.99
2018-06-12T00:56:03.392Z,99.99
2018-06-12T00:57:03.403Z,99.99
2018-06-12T00:58:56.348Z,99.99
2018-06-12T00:59:56.345Z,99.99
2018-06-12T01:01:49.275Z,99.99
2018-06-12T01:02:49.310Z,99.99
2018-06-12T01:04:42.238Z,99.99
2018-06-12T01:05:42.232Z,99.99
2018-06-12T01:07:35.160Z,99.99
2018-06-12T01:09:48.122Z,99.99
2018-06-12T01:10:48.123Z,99.99
2018-06-12T01:12:41.045Z,99.99
2018-06-12T01:13:41.057Z,99.99
2018-06-12T01:15:34.012Z,99.99
2018-06-12T01:16:34.009Z,99.99
2018-06-12T01:18:26.958Z,99.99
2018-06-12T01:19:26.957Z,99.99
2018-06-12T01:21:19.880Z,99.99
2018-06-12T01:22:19.893Z,99.99
2018-06-12T01:24:12.842Z,99.99
2018-06-12T01:25:12.838Z,99.99
2018-06-12T01:27:05.764Z,99.99
2018-06-12T01:28:05.781Z,99.99
2018-06-12T01:29:58.739Z,99.99
2018-06-12T01:30:58.736Z,99.99
2018-06-12T01:32:51.660Z,99.99
2018-06-12T01:33:51.677Z,99.99
2018-06-12T01:35:44.626Z,99.99
2018-06-12T01:36:44.620Z,99.99
2018-06-12T01:38:37.567Z,99.99
2018-06-12T01:39:37.560Z,99.99
2018-06-12T01:41:30.495Z,99.99
2018-06-12T01:42:30.511Z,99.99
2018-06-12T01:44:23.455Z,99.99
2018-06-12T01:45:23.450Z,99.99
2018-06-12T01:47:16.373Z,99.99
2018-06-12T01:48:16.392Z,99.99
2018-06-12T02:17:49.320Z,99.99
2018-06-12T02:18:49.300Z,99.99
2018-06-12T02:20:42.236Z,99.99
2018-06-12T02:21:42.227Z,99.99
2018-06-12T02:23:35.150Z,99.99
2018-06-12T02:24:35.160Z,99.99
2018-06-12T02:26:28.107Z,99.99
2018-06-12T02:27:28.096Z,99.99
2018-06-12T02:29:21.036Z,99.99
2018-06-12T02:30:21.028Z,99.99
2018-06-12T02:32:13.955Z,99.99
2018-06-12T02:33:13.963Z,99.99
2018-06-12T02:35:06.915Z,99.99
2018-06-12T02:36:06.913Z,99.99
2018-06-12T02:37:59.829Z,99.99
2018-06-12T02:38:59.842Z,99.99
2018-06-12T02:40:52.793Z,99.99
2018-06-12T02:41:52.791Z,99.99
2018-06-12T02:43:45.718Z,99.99
2018-06-12T02:44:45.732Z,99.99
2018-06-12T02:46:38.672Z,99.99
2018-06-12T02:47:38.672Z,99.99
2018-06-12T02:49:31.616Z,99.99
2018-06-12T02:50:31.615Z,99.99
2018-06-12T02:52:24.540Z,99.99
2018-06-12T02:53:24.553Z,99.99
2018-06-12T02:55:17.496Z,99.99
2018-06-12T02:56:17.606Z,99.99
2018-06-12T02:58:10.428Z,99.99
2018-06-12T02:59:10.435Z,99.99
2018-06-12T03:01:03.383Z,99.99
2018-06-12T03:02:03.383Z,99.99
2018-06-12T03:03:56.301Z,99.99
2018-06-12T03:04:56.323Z,99.99
2018-06-12T03:06:49.266Z,99.99
2018-06-12T03:07:49.260Z,99.99
2018-06-12T03:09:42.206Z,99.99
2018-06-12T03:10:42.208Z,99.99
2018-06-12T03:12:35.129Z,99.99
2018-06-12T03:13:35.140Z,99.99
2018-06-12T03:15:28.094Z,99.99
2018-06-12T03:16:28.092Z,99.99
2018-06-12T03:18:21.019Z,99.99
2018-06-12T03:19:21.031Z,99.99
2018-06-12T03:21:13.975Z,99.99
2018-06-12T03:22:13.974Z,99.99
2018-06-12T03:24:06.895Z,99.99
2018-06-12T03:25:06.919Z,99.99
2018-06-12T03:26:59.857Z,99.99
2018-06-12T03:27:59.854Z,99.99
2018-06-12T03:29:52.800Z,99.99
2018-06-12T03:30:52.795Z,99.99
2018-06-12T03:32:45.722Z,99.99
2018-06-12T03:33:45.736Z,99.99
2018-06-12T03:35:38.681Z,99.99
2018-06-12T03:36:38.678Z,99.99
2018-06-12T03:38:31.617Z,99.99
2018-06-12T03:39:31.622Z,99.99
2018-06-12T03:41:24.580Z,99.99
2018-06-12T03:42:24.576Z,99.99
2018-06-12T03:44:17.502Z,99.99
2018-06-12T03:45:17.515Z,99.99
2018-06-12T03:47:10.469Z,99.99
2018-06-12T03:48:10.473Z,99.99
2018-06-12T03:50:03.410Z,99.99
2018-06-12T03:51:03.400Z,99.99
2018-06-12T03:52:56.336Z,99.99
2018-06-12T03:53:56.343Z,99.99
2018-06-12T03:55:49.290Z,99.99
2018-06-12T03:56:49.280Z,99.99
2018-06-12T03:58:42.210Z,99.99
2018-06-12T03:59:42.229Z,99.99
2018-06-12T04:01:35.179Z,99.99
2018-06-12T04:02:35.178Z,99.99
2018-06-12T04:04:28.102Z,99.99
2018-06-12T04:05:28.117Z,99.99
2018-06-12T04:07:21.067Z,99.99
2018-06-12T04:08:21.064Z,99.99
2018-06-12T04:10:14.012Z,99.99
2018-06-12T04:11:14.008Z,99.99
2018-06-12T04:13:06.940Z,99.99
2018-06-12T04:14:06.952Z,99.99
2018-06-12T04:15:59.898Z,99.99
2018-06-12T04:16:59.889Z,99.99
2018-06-12T04:18:52.821Z,99.99
2018-06-12T04:19:52.844Z,99.99
2018-06-12T04:21:45.791Z,99.99
2018-06-12T04:22:45.784Z,99.99
2018-06-12T04:24:38.722Z,99.99
2018-06-12T04:25:38.730Z,99.99
2018-06-12T04:27:31.685Z,99.99
2018-06-12T04:28:31.683Z,99.99
2018-06-12T04:30:24.632Z,99.99
2018-06-12T04:31:24.625Z,99.99
2018-06-12T04:33:17.570Z,99.99
2018-06-12T04:34:17.574Z,99.99
2018-06-12T04:36:10.520Z,99.99
2018-06-12T04:37:10.516Z,99.99
2018-06-12T04:39:03.451Z,99.99
2018-06-12T04:40:03.461Z,99.99
2018-06-12T04:41:56.405Z,99.99
2018-06-12T04:42:56.398Z,99.99
2018-06-12T04:44:49.332Z,99.99
2018-06-12T04:45:49.343Z,99.99
2018-06-12T04:47:42.293Z,99.99
2018-06-12T04:48:42.282Z,99.99
2018-06-12T04:50:35.233Z,99.99
2018-06-12T04:51:35.226Z,99.99
2018-06-12T04:53:28.160Z,99.99
2018-06-12T04:54:28.172Z,99.99
2018-06-12T04:56:21.172Z,99.99
2018-06-12T04:57:21.172Z,99.99
2018-06-12T04:59:14.093Z,99.99
2018-06-12T05:00:14.109Z,99.99
2018-06-12T05:02:07.066Z,99.99
2018-06-12T05:03:07.049Z,99.99
2018-06-12T05:04:59.983Z,99.99
2018-06-12T05:05:59.996Z,99.99
2018-06-12T05:07:52.941Z,99.99
2018-06-12T05:08:52.936Z,99.99
2018-06-12T05:10:45.897Z,99.99
2018-06-12T05:11:45.883Z,99.99
2018-06-12T05:13:38.817Z,99.99
2018-06-12T05:14:38.826Z,99.99
2018-06-12T05:16:31.772Z,99.99
2018-06-12T05:17:31.768Z,99.99
2018-06-12T05:19:24.798Z,99.99
2018-06-12T05:20:24.810Z,99.99
2018-06-12T05:22:17.772Z,99.99
2018-06-12T05:23:17.770Z,99.99
2018-06-12T05:25:10.709Z,99.99
2018-06-12T05:26:10.729Z,99.99
2018-06-12T05:28:03.686Z,99.99
2018-06-12T05:29:03.684Z,99.99
2018-06-12T05:30:56.695Z,99.99
2018-06-12T05:31:56.649Z,99.99
2018-06-12T05:33:49.578Z,99.99
2018-06-12T05:34:49.594Z,99.99
2018-06-12T05:36:42.561Z,99.99
2018-06-12T05:37:42.547Z,99.99
2018-06-12T05:39:35.588Z,99.99
2018-06-12T05:40:35.605Z,99.99
2018-06-12T05:42:28.564Z,99.99
2018-06-12T05:43:28.561Z,99.99
2018-06-12T05:45:21.502Z,99.99
2018-06-12T05:46:21.523Z,99.99
2018-06-12T05:48:14.535Z,99.99
2018-06-12T05:49:14.534Z,99.99
2018-06-12T05:51:07.485Z,99.99
2018-06-12T05:52:07.477Z,99.99
2018-06-12T05:54:00.423Z,99.99
2018-06-12T05:55:00.431Z,99.99
2018-06-12T05:56:53.427Z,99.99
2018-06-12T05:57:53.379Z,99.99
2018-06-12T05:59:46.307Z,99.99
2018-06-12T06:00:46.325Z,99.99
2018-06-12T06:02:39.278Z,99.99
2018-06-12T06:03:39.277Z,99.99
2018-06-12T06:05:32.207Z,99.99
2018-06-12T06:06:32.221Z,99.99
2018-06-12T06:08:25.186Z,99.99
2018-06-12T06:09:25.175Z,99.99
2018-06-12T06:11:18.159Z,99.99
2018-06-12T06:12:18.155Z,99.99
2018-06-12T06:14:11.093Z,99.99
2018-06-12T06:15:11.110Z,99.99
2018-06-12T06:17:04.213Z,99.99
2018-06-12T06:18:04.160Z,99.99
2018-06-12T06:19:57.203Z,99.99
2018-06-12T06:20:57.218Z,99.99
2018-06-12T06:22:50.277Z,99.99
2018-06-12T06:23:50.277Z,99.99
2018-06-12T06:25:43.322Z,99.99
2018-06-12T06:26:43.340Z,99.99
2018-06-12T06:28:36.287Z,99.99
2018-06-12T06:29:36.285Z,99.99
2018-06-12T06:31:29.231Z,99.99
2018-06-12T06:32:29.228Z,99.99
2018-06-12T06:34:22.158Z,99.99
2018-06-12T06:35:22.177Z,99.99
2018-06-12T06:37:15.133Z,99.99
2018-06-12T06:38:15.128Z,99.99
2018-06-12T06:40:08.059Z,99.99
2018-06-12T06:41:08.075Z,99.99
2018-06-12T06:43:01.039Z,99.99
2018-06-12T06:44:01.022Z,99.99
2018-06-12T06:45:53.954Z,99.99
2018-06-12T06:46:53.967Z,99.99
2018-06-12T06:48:46.918Z,99.99
2018-06-12T06:49:46.919Z,99.99
2018-06-12T06:51:39.867Z,99.99
2018-06-12T06:52:39.868Z,99.99
2018-06-12T06:54:32.797Z,99.99
2018-06-12T06:55:32.815Z,99.99
2018-06-12T06:57:25.765Z,99.99
2018-06-12T06:58:25.760Z,99.99
2018-06-12T07:00:18.700Z,99.99
2018-06-12T07:01:18.718Z,99.99
2018-06-12T07:03:11.664Z,99.99
2018-06-12T07:04:11.660Z,99.99
2018-06-12T07:06:04.600Z,99.99
2018-06-12T07:07:04.615Z,99.99
2018-06-12T07:08:57.564Z,99.99
2018-06-12T07:09:57.559Z,99.99
2018-06-12T07:11:50.506Z,99.99
2018-06-12T07:12:50.523Z,99.99
2018-06-12T07:14:43.439Z,99.99
2018-06-12T07:15:43.456Z,99.99
2018-06-12T07:17:36.403Z,99.99
2018-06-12T07:18:36.401Z,99.99
2018-06-12T07:20:29.329Z,99.99
2018-06-12T07:21:29.350Z,99.99
2018-06-12T07:23:22.321Z,99.99
2018-06-12T07:24:22.316Z,99.99
2018-06-12T07:26:15.247Z,99.99
2018-06-12T07:27:15.263Z,99.99
2018-06-12T07:29:08.216Z,99.99
2018-06-12T07:30:08.277Z,99.99
2018-06-12T07:32:01.178Z,99.99
2018-06-12T07:33:01.166Z,99.99
2018-06-12T07:34:54.193Z,99.99
2018-06-12T07:35:54.212Z,98.29
2018-06-12T07:37:47.300Z,87.53
2018-06-12T07:38:47.264Z,84.82
2018-06-12T07:40:40.199Z,85.46
2018-06-12T07:41:40.218Z,89.47
2018-06-12T07:43:33.212Z,87.45
2018-06-12T07:44:33.172Z,86.39
2018-06-12T07:46:26.117Z,85.61
2018-06-12T07:47:26.132Z,84.79
2018-06-12T07:49:19.090Z,86.33
2018-06-12T07:50:19.086Z,86.86
2018-06-12T07:52:12.045Z,85.41
2018-06-12T07:53:12.048Z,83.19
2018-06-12T07:55:05.014Z,80.95
2018-06-12T07:56:04.997Z,80.38
2018-06-12T07:57:57.952Z,79.08
2018-06-12T07:58:57.957Z,80.57
2018-06-12T08:00:50.895Z,78.54
2018-06-12T08:01:50.907Z,78.64
2018-06-12T08:03:43.865Z,73.42
2018-06-12T08:04:43.864Z,76.42
2018-06-12T08:06:36.806Z,75.84
2018-06-12T08:07:36.827Z,75.26
2018-06-12T08:09:29.783Z,74.35
2018-06-12T08:10:29.782Z,74.79
2018-06-12T08:12:22.812Z,77.01
2018-06-12T08:13:22.806Z,78.75
2018-06-12T08:15:15.853Z,77.78
2018-06-12T08:16:15.862Z,79.49
2018-06-12T08:18:08.920Z,82.28
2018-06-12T08:19:08.922Z,82.57
2018-06-12T08:21:01.960Z,82.82
2018-06-12T08:22:01.973Z,85.13
2018-06-12T08:23:54.955Z,82.72
2018-06-12T08:24:54.928Z,82.72
2018-06-12T08:26:47.866Z,84.99
2018-06-12T08:27:47.897Z,86.15
2018-06-12T08:29:40.871Z,88.37
2018-06-12T08:30:40.980Z,88.95
2018-06-12T08:32:33.897Z,90.44
2018-06-12T08:33:33.872Z,86.15
2018-06-12T08:35:27.458Z,85.33
2018-06-12T08:36:27.443Z,85.52
2018-06-12T08:38:22.449Z,87.16
2018-06-12T08:39:21.876Z,85.71
2018-06-12T08:41:18.740Z,84.07
2018-06-12T08:42:16.567Z,84.75
2018-06-12T08:44:10.241Z,82.62
2018-06-12T08:45:08.486Z,82.09
2018-06-12T08:47:01.721Z,80.74
2018-06-12T08:48:01.267Z,79.93
2018-06-12T08:50:00.497Z,80.22
2018-06-12T08:50:57.713Z,82.62
2018-06-12T08:52:51.856Z,81.37
2018-06-12T08:53:53.873Z,80.16
2018-06-12T08:55:44.421Z,80.99
2018-06-12T08:56:45.991Z,82.53
2018-06-12T08:58:40.278Z,85.42
2018-06-12T08:59:38.015Z,82.34
2018-06-12T09:01:36.646Z,81.22
2018-06-12T09:02:36.609Z,82.57
2018-06-12T09:04:29.610Z,80.39
2018-06-12T09:05:28.256Z,80.64
2018-06-12T09:07:26.150Z,84.03
2018-06-12T09:08:24.275Z,87.46
2018-06-12T09:10:18.444Z,91.36
2018-06-12T09:11:19.938Z,91.94
2018-06-12T09:13:15.030Z,90.64
2018-06-12T09:15:31.925Z,86.05
2018-06-12T09:16:30.645Z,85.03
2018-06-12T09:18:23.753Z,86.25
2018-06-12T09:19:23.957Z,85.86
2018-06-12T09:21:16.810Z,83.30
2018-06-12T09:22:16.619Z,80.89
2018-06-12T09:24:09.655Z,81.02
2018-06-12T09:25:09.579Z,81.37
2018-06-12T09:27:02.437Z,86.25
2018-06-12T09:28:02.453Z,86.25
2018-06-12T09:29:55.401Z,86.98
2018-06-12T09:30:55.398Z,90.34
2018-06-12T09:32:48.377Z,90.44
2018-06-12T09:33:48.359Z,91.79
2018-06-12T09:35:41.343Z,86.19
2018-06-12T09:36:41.360Z,85.37
2018-06-12T09:38:34.318Z,77.05
2018-06-12T09:39:34.315Z,73.63
2018-06-12T09:41:27.257Z,74.68
2018-06-12T09:42:27.263Z,75.16
2018-06-12T09:44:20.219Z,71.39
2018-06-12T09:45:20.216Z,71.39
2018-06-12T09:47:13.157Z,72.64
2018-06-12T09:48:13.231Z,72.55
2018-06-12T09:50:06.214Z,74.83
2018-06-12T09:51:06.243Z,74.69
2018-06-12T09:52:59.272Z,77.51
2018-06-12T09:53:59.267Z,80.22
2018-06-12T09:55:52.325Z,80.16
2018-06-12T09:56:52.320Z,78.91
2018-06-12T09:58:45.383Z,74.27
2018-06-12T09:59:45.378Z,74.89
2018-06-12T10:01:38.427Z,77.98
2018-06-12T10:02:38.433Z,75.57
2018-06-12T10:04:31.495Z,73.54
2018-06-12T10:05:31.490Z,73.38
2018-06-12T10:07:24.528Z,74.64
2018-06-12T10:08:24.549Z,75.57
2018-06-12T10:10:17.608Z,76.15
2018-06-12T10:11:17.607Z,75.67
2018-06-12T10:13:10.687Z,76.88
2018-06-12T10:14:10.668Z,76.88
2018-06-12T10:16:03.713Z,81.47
2018-06-12T10:17:03.712Z,82.29
2018-06-12T10:18:56.861Z,81.95
2018-06-12T10:19:56.767Z,83.84
2018-06-12T10:21:49.804Z,85.86
2018-06-12T10:22:49.824Z,80.69
2018-06-12T10:24:42.878Z,76.93
2018-06-12T10:25:42.879Z,75.43
2018-06-12T10:27:35.916Z,75.53
2018-06-12T10:28:35.935Z,77.36
2018-06-12T10:30:29.031Z,78.67
2018-06-12T10:31:29.037Z,81.95
2018-06-12T10:33:22.055Z,83.07
2018-06-12T10:34:22.045Z,79.94
2018-06-12T10:36:15.104Z,86.49
2018-06-12T10:37:15.178Z,87.32
2018-06-12T10:39:08.157Z,82.74
2018-06-12T10:40:08.156Z,80.71
2018-06-12T10:42:01.194Z,79.89
2018-06-12T10:43:01.210Z,79.21
2018-06-12T10:44:54.272Z,77.33
2018-06-12T10:45:54.270Z,81.04
2018-06-12T10:47:47.308Z,79.50
2018-06-12T10:48:47.322Z,81.43
2018-06-12T10:50:40.379Z,83.80
2018-06-12T10:51:40.377Z,85.72
2018-06-12T10:53:33.499Z,84.56
2018-06-12T10:54:33.445Z,83.41
2018-06-12T10:56:26.492Z,84.95
2018-06-12T10:57:26.489Z,81.58
2018-06-12T10:59:19.545Z,81.58
2018-06-12T11:00:19.541Z,80.81
2018-06-12T11:02:12.581Z,81.68
2018-06-12T11:03:12.599Z,82.83
2018-06-12T11:05:05.680Z,80.04
2018-06-12T11:06:05.654Z,80.04
2018-06-12T11:07:58.700Z,79.36
2018-06-12T11:08:58.726Z,79.46
2018-06-12T11:10:51.758Z,77.34
2018-06-12T11:11:51.729Z,78.98
2018-06-12T11:13:44.612Z,81.58
2018-06-12T11:14:44.620Z,84.33
2018-06-12T11:16:37.678Z,84.38
2018-06-12T11:17:37.673Z,83.80
2018-06-12T11:19:30.630Z,87.32
2018-06-12T11:20:30.627Z,88.67
2018-06-12T11:22:23.662Z,99.99
2018-06-12T11:23:23.678Z,99.99
2018-06-12T11:25:16.739Z,99.99
2018-06-12T11:26:16.734Z,99.99
2018-06-12T11:28:09.775Z,99.99
2018-06-12T11:29:09.795Z,99.99
2018-06-12T11:31:02.859Z,99.99
2018-06-12T11:32:02.847Z,99.99
2018-06-12T11:33:55.884Z,99.99
2018-06-12T11:34:55.925Z,99.99
2018-06-12T11:36:48.961Z,99.99
2018-06-12T11:37:48.958Z,99.99
2018-06-12T11:39:42.014Z,99.99
2018-06-12T11:40:42.014Z,99.99
2018-06-12T11:42:35.051Z,99.99
2018-06-12T11:43:35.068Z,99.99
2018-06-12T11:45:28.124Z,99.99
2018-06-12T11:46:28.121Z,99.99
2018-06-12T11:48:21.163Z,99.99
2018-06-12T11:49:21.178Z,99.99
2018-06-12T11:51:14.239Z,99.99
2018-06-12T11:52:14.231Z,99.99
2018-06-12T11:54:07.271Z,99.99
2018-06-12T11:55:07.287Z,99.99
2018-06-12T11:57:00.349Z,99.99
2018-06-12T11:58:00.343Z,99.99
2018-06-12T11:59:53.402Z,99.99
2018-06-12T12:00:53.401Z,99.99
2018-06-12T12:02:46.440Z,99.99
2018-06-12T12:03:46.461Z,99.99
2018-06-12T12:05:39.516Z,99.99
2018-06-12T12:06:39.510Z,99.99
2018-06-12T12:08:32.569Z,99.99
2018-06-12T12:09:32.566Z,99.99
2018-06-12T12:11:25.595Z,99.99
2018-06-12T12:12:25.544Z,99.99
2018-06-12T12:14:18.561Z,99.99
2018-06-12T12:15:18.680Z,99.99
2018-06-12T12:17:11.640Z,99.99
2018-06-12T12:18:11.632Z,99.99
2018-06-12T12:20:04.701Z,99.99
2018-06-12T12:21:04.767Z,99.99
2018-06-12T12:22:57.725Z,99.99
2018-06-12T12:23:57.741Z,99.99
2018-06-12T12:25:50.797Z,99.99
2018-06-12T12:26:50.797Z,99.99
2018-06-12T12:28:43.855Z,99.99
2018-06-12T12:29:43.852Z,99.99
2018-06-12T12:31:36.910Z,99.99
2018-06-12T12:32:36.907Z,99.99
2018-06-12T12:34:29.946Z,99.99
2018-06-12T12:35:29.964Z,99.99
2018-06-12T12:37:23.106Z,99.99
2018-06-12T12:38:23.064Z,99.99
2018-06-12T12:40:16.102Z,99.99
2018-06-12T12:41:16.076Z,99.99
2018-06-12T12:43:09.120Z,99.99
2018-06-12T12:44:09.132Z,99.99
2018-06-12T12:46:02.188Z,99.99
2018-06-12T12:47:02.189Z,99.99
2018-06-12T12:48:55.161Z,99.99
2018-06-12T12:49:55.178Z,99.99
2018-06-12T12:51:48.384Z,99.99
2018-06-12T12:52:48.228Z,99.99
2018-06-12T12:54:41.241Z,99.99
2018-06-12T12:55:41.251Z,99.99
2018-06-12T12:57:34.307Z,99.99
2018-06-12T12:58:34.304Z,99.99
2018-06-12T13:00:27.264Z,99.99
2018-06-12T13:01:27.257Z,99.99
2018-06-12T13:03:20.189Z,99.99
2018-06-12T13:04:20.207Z,99.99
2018-06-12T13:06:13.163Z,99.99
2018-06-12T13:07:13.156Z,99.99
2018-06-12T13:09:06.105Z,99.99
2018-06-12T13:10:06.124Z,99.99
2018-06-12T13:11:59.180Z,99.99
2018-06-12T13:12:59.174Z,99.99
2018-06-12T13:14:52.215Z,99.99
2018-06-12T13:15:52.229Z,99.99
2018-06-12T13:17:45.292Z,99.99
2018-06-12T13:18:45.286Z,99.99
2018-06-12T13:20:38.239Z,99.99
2018-06-12T13:21:38.237Z,99.99
2018-06-12T13:23:31.171Z,99.99
2018-06-12T13:24:31.188Z,99.98
2018-06-12T13:26:24.225Z,99.99
2018-06-12T13:27:24.222Z,99.99
2018-06-12T13:29:17.154Z,99.99
2018-06-12T13:30:17.189Z,99.99
2018-06-12T13:32:10.120Z,99.99
2018-06-12T13:33:10.120Z,99.99
2018-06-12T13:35:03.054Z,99.99
2018-06-12T13:36:03.074Z,99.99
2018-06-12T13:37:56.031Z,99.99
2018-06-12T13:38:56.027Z,99.99
2018-06-12T13:40:48.984Z,99.99
2018-06-12T13:41:48.980Z,99.99
2018-06-12T13:43:41.920Z,99.99
2018-06-12T13:44:41.938Z,99.99
2018-06-12T13:46:34.936Z,99.99
2018-06-12T13:47:34.894Z,99.99
2018-06-12T13:49:27.817Z,99.99
2018-06-12T13:50:27.833Z,99.99
2018-06-12T13:52:20.781Z,99.99
2018-06-12T13:53:20.785Z,99.99
2018-06-12T13:55:13.734Z,99.99
2018-06-12T13:56:13.742Z,99.99
2018-06-12T13:58:06.704Z,99.99
2018-06-12T13:59:06.689Z,99.99
2018-06-12T14:00:59.645Z,99.99
2018-06-12T14:01:59.639Z,99.99
2018-06-12T14:03:52.570Z,99.99
2018-06-12T14:04:52.585Z,99.99
2018-06-12T14:06:45.530Z,99.99
2018-06-12T14:07:45.533Z,99.99
2018-06-12T14:09:38.464Z,99.99
2018-06-12T14:10:38.481Z,99.99
2018-06-12T14:12:31.930Z,99.99
2018-06-12T14:13:31.976Z,99.99
2018-06-12T14:15:24.859Z,99.99
2018-06-12T14:16:24.880Z,99.99
2018-06-12T14:18:17.822Z,99.99
2018-06-12T14:19:17.822Z,99.99
2018-06-12T14:21:10.774Z,99.99
2018-06-12T14:22:10.776Z,99.99
2018-06-12T14:24:03.707Z,99.99
2018-06-12T14:25:03.724Z,99.99
2018-06-12T14:26:56.686Z,99.99
2018-06-12T14:27:56.681Z,99.99
2018-06-12T14:29:49.612Z,99.99
2018-06-12T14:30:49.629Z,99.99
2018-06-12T14:32:42.587Z,99.99
2018-06-12T14:33:42.578Z,99.99
2018-06-12T14:35:35.516Z,99.99
2018-06-12T14:36:35.534Z,99.99
2018-06-12T14:38:28.486Z,99.99
2018-06-12T14:39:28.483Z,99.99
2018-06-12T14:41:21.436Z,99.99
2018-06-12T14:42:21.435Z,99.99
2018-06-12T14:44:14.382Z,99.99
2018-06-12T14:45:14.389Z,99.99
2018-06-12T14:47:07.341Z,99.99
2018-06-12T14:48:07.341Z,96.17
2018-06-12T14:50:00.268Z,92.32
2018-06-12T14:51:00.289Z,91.16
2018-06-12T14:52:53.241Z,91.20
2018-06-12T14:53:53.241Z,92.89
2018-06-12T14:55:46.173Z,85.94
2018-06-12T14:56:46.189Z,85.94
2018-06-12T14:58:39.138Z,85.85
2018-06-12T14:59:39.141Z,87.10
2018-06-12T15:01:32.099Z,83.05
2018-06-12T15:02:32.100Z,83.34
2018-06-12T15:04:25.031Z,87.45
2018-06-12T15:05:25.049Z,84.65
2018-06-12T15:07:17.999Z,87.30
2018-06-12T15:08:17.999Z,85.37
2018-06-12T15:10:10.936Z,84.89
2018-06-12T15:11:10.951Z,85.50
2018-06-12T15:13:03.908Z,81.55
2018-06-12T15:14:03.909Z,83.09
2018-06-12T15:15:56.840Z,79.24
2018-06-12T15:16:56.858Z,77.98
2018-06-12T15:18:49.836Z,78.61
2018-06-12T15:19:49.817Z,79.29
2018-06-12T15:21:42.772Z,77.51
2018-06-12T15:22:42.766Z,80.02
2018-06-12T15:24:35.700Z,80.69
2018-06-12T15:25:35.716Z,81.66
2018-06-12T15:27:28.704Z,88.22
2018-06-12T15:28:28.675Z,87.60
2018-06-12T15:30:21.608Z,88.95
2018-06-12T15:31:21.626Z,87.30
2018-06-12T15:33:14.578Z,83.26
2018-06-12T15:34:14.590Z,85.09
2018-06-12T15:36:07.516Z,87.50
2018-06-12T15:37:07.528Z,90.78
2018-06-12T15:39:00.514Z,90.97
2018-06-12T15:40:00.486Z,90.48
2018-06-12T15:41:53.432Z,89.09
2018-06-12T15:42:53.431Z,90.05
2018-06-12T15:44:46.432Z,89.28
2018-06-12T15:45:46.383Z,91.06
2018-06-12T15:47:39.341Z,92.22
2018-06-12T15:48:39.339Z,91.06
2018-06-12T15:50:32.295Z,88.51
2018-06-12T15:51:32.295Z,85.42
2018-06-12T15:53:25.248Z,88.45
2018-06-12T15:54:25.247Z,83.59
2018-06-12T15:56:18.184Z,89.23
2018-06-12T15:57:18.198Z,84.98
2018-06-12T15:59:11.148Z,80.93
2018-06-12T16:00:11.144Z,82.18
2018-06-12T16:02:04.103Z,81.32
2018-06-12T16:03:04.102Z,81.95
2018-06-12T16:04:57.043Z,82.34
2018-06-12T16:05:57.054Z,83.01
2018-06-12T16:07:50.011Z,85.61
2018-06-12T16:08:50.008Z,88.95
2018-06-12T16:10:42.943Z,87.21
2018-06-12T16:11:42.960Z,87.21
2018-06-12T16:13:35.911Z,87.40
2018-06-12T16:14:35.914Z,85.19
2018-06-12T16:16:28.854Z,80.37
2018-06-12T16:17:28.869Z,81.33
2018-06-12T16:19:21.823Z,80.85
2018-06-12T16:20:21.820Z,84.66
2018-06-12T16:22:14.773Z,86.05
2018-06-12T16:23:14.769Z,87.36
2018-06-12T16:25:07.701Z,86.01
2018-06-12T16:26:07.752Z,86.98
2018-06-12T16:28:00.677Z,88.38
2018-06-12T16:29:00.676Z,88.57
2018-06-12T16:30:53.607Z,89.43
2018-06-12T16:31:53.622Z,90.69
2018-06-12T16:33:46.573Z,89.92
2018-06-12T16:34:46.575Z,88.57
2018-06-12T16:36:39.501Z,89.53
2018-06-12T16:37:39.521Z,89.05
2018-06-12T16:39:32.481Z,90.30
2018-06-12T16:40:32.478Z,90.88
2018-06-12T16:42:25.426Z,89.24
2018-06-12T16:43:25.425Z,88.28
2018-06-12T16:45:18.356Z,88.67
2018-06-12T16:46:18.372Z,90.97
2018-06-12T16:48:11.321Z,90.78
2018-06-12T16:49:11.325Z,89.72
2018-06-12T16:51:04.254Z,87.90
2018-06-12T16:52:04.270Z,89.05
2018-06-12T16:53:57.220Z,88.57
2018-06-12T16:54:57.220Z,89.15
2018-06-12T16:56:50.153Z,86.26
2018-06-12T16:57:50.173Z,86.55
2018-06-12T16:59:43.130Z,85.49
2018-06-12T17:00:43.127Z,84.72
2018-06-12T17:02:36.082Z,87.32
2018-06-12T17:03:36.078Z,86.16
2018-06-12T17:05:29.007Z,86.65
2018-06-12T17:06:29.027Z,87.22
2018-06-12T17:08:21.976Z,88.18
2018-06-12T17:09:21.972Z,87.99
2018-06-12T17:11:14.906Z,86.93
2018-06-12T17:12:14.924Z,85.87
2018-06-12T17:14:07.871Z,86.45
2018-06-12T17:15:07.873Z,86.93
2018-06-12T17:17:00.803Z,89.34
2018-06-12T17:18:00.814Z,89.92
2018-06-12T17:19:53.766Z,89.72
2018-06-12T17:20:53.764Z,88.67
2018-06-12T17:22:46.719Z,87.60
2018-06-12T17:23:46.715Z,88.85
2018-06-12T17:25:39.646Z,84.76
2018-06-12T17:26:39.657Z,84.66
2018-06-12T17:28:32.614Z,84.56
2018-06-12T17:29:32.613Z,83.89
2018-06-12T17:31:25.545Z,85.49
2018-06-12T17:32:25.564Z,85.00
2018-06-12T17:34:18.518Z,85.20
2018-06-12T17:35:18.517Z,85.20
2018-06-12T17:37:11.440Z,88.53
2018-06-12T17:38:11.464Z,88.04
2018-06-12T17:40:04.414Z,88.04
2018-06-12T17:41:04.413Z,89.92
2018-06-12T17:42:57.369Z,90.31
2018-06-12T17:43:57.361Z,88.87
2018-06-12T17:45:50.292Z,91.46
2018-06-12T17:46:50.314Z,90.36
2018-06-12T17:48:43.270Z,92.81
2018-06-12T17:49:43.262Z,93.73
2018-06-12T17:51:36.195Z,94.59
2018-06-12T17:52:36.211Z,93.91
2018-06-12T17:54:29.163Z,94.78
2018-06-12T17:55:29.158Z,94.11
2018-06-12T17:57:22.088Z,96.13
2018-06-12T17:58:22.111Z,94.59
2018-06-12T18:00:15.061Z,96.51
2018-06-12T18:01:15.063Z,97.38
2018-06-12T18:03:08.055Z,98.53
2018-06-12T18:04:08.002Z,99.21
2018-06-12T18:06:00.935Z,99.21
2018-06-12T18:07:00.951Z,99.99
2018-06-12T18:08:53.904Z,99.88
2018-06-12T18:09:53.902Z,99.99
2018-06-12T18:11:46.830Z,99.40
2018-06-12T18:12:46.845Z,96.13
2018-06-12T18:14:39.794Z,96.22
2018-06-12T18:15:39.796Z,96.90
2018-06-12T18:17:32.728Z,96.13
2018-06-12T18:18:32.740Z,96.80
2018-06-12T18:20:25.684Z,95.94
2018-06-12T18:21:25.683Z,96.42
2018-06-12T18:23:18.633Z,96.42
2018-06-12T18:24:18.634Z,96.22
2018-06-12T18:26:11.562Z,98.53
2018-06-12T18:27:11.585Z,99.30
2018-06-12T18:29:04.529Z,99.21
2018-06-12T18:30:04.521Z,98.72
2018-06-12T18:31:57.451Z,97.47
2018-06-12T18:32:57.468Z,97.09
2018-06-12T18:34:50.416Z,97.42
2018-06-12T18:35:50.414Z,95.94
2018-06-12T18:37:43.341Z,98.05
2018-06-12T18:38:43.363Z,99.40
2018-06-12T18:40:36.317Z,99.99
2018-06-12T18:41:36.310Z,99.99
2018-06-12T18:43:29.265Z,99.88
2018-06-12T18:44:29.260Z,99.99
2018-06-12T18:46:22.192Z,99.99
2018-06-12T18:47:22.206Z,99.99
2018-06-12T18:49:15.156Z,99.99
2018-06-12T18:50:15.151Z,99.99
2018-06-12T18:52:08.086Z,99.99
2018-06-12T18:53:08.097Z,99.99
2018-06-12T18:55:01.073Z,99.99
2018-06-12T18:56:01.074Z,99.99
2018-06-12T18:57:54.004Z,99.99
2018-06-12T18:58:54.024Z,99.99
2018-06-12T19:00:46.968Z,99.99
2018-06-12T19:01:46.965Z,99.99
2018-06-12T19:03:39.908Z,99.99